createdAt,value
2022-09-11T00:01:03.861Z,99.90
2022-09-11T00:03:31.564Z,99.90
2022-09-11T00:06:06.738Z,99.90
2022-09-11T00:08:35.175Z,99.90
2022-09-11T00:11:08.707Z,99.90
2022-09-11T00:13:36.915Z,99.90
2022-09-11T00:16:07.325Z,99.90
2022-09-11T00:18:38.006Z,99.90
2022-09-11T00:21:08.038Z,99.90
2022-09-11T00:23:35.575Z,99.90
2022-09-11T00:26:03.652Z,99.90
2022-09-11T00:28:31.185Z,99.90
2022-09-11T00:31:05.388Z,99.90
2022-09-11T00:33:33.569Z,99.90
2022-09-11T00:36:10.760Z,99.90
2022-09-11T00:38:38.499Z,99.90
2022-09-11T00:41:09.049Z,99.90
2022-09-11T00:43:54.061Z,99.90
2022-09-11T00:46:23.625Z,99.90
2022-09-11T00:48:50.668Z,99.90
2022-09-11T00:51:24.723Z,99.90
2022-09-11T00:53:54.429Z,99.90
2022-09-11T00:56:23.544Z,99.90
2022-09-11T00:58:54.950Z,99.90
2022-09-11T01:01:21.922Z,99.90
2022-09-11T01:03:50.268Z,99.90
2022-09-11T01:06:18.639Z,99.90
2022-09-11T01:08:45.524Z,99.90
2022-09-11T01:11:15.375Z,99.90
2022-09-11T01:13:52.877Z,99.90
2022-09-11T01:16:29.643Z,99.90
2022-09-11T01:19:04.643Z,99.90
2022-09-11T01:21:40.656Z,99.90
2022-09-11T01:24:26.172Z,99.90
2022-09-11T01:26:58.422Z,99.90
2022-09-11T01:29:39.565Z,99.90
2022-09-11T01:32:22.351Z,99.90
2022-09-11T01:35:00.175Z,99.90
2022-09-11T01:37:53.189Z,99.90
2022-09-11T01:40:27.278Z,99.90
2022-09-11T01:43:03.509Z,99.90
2022-09-11T01:45:31.775Z,99.90
2022-09-11T01:48:00.629Z,99.90
2022-09-11T01:50:29.560Z,99.90
2022-09-11T01:53:00.911Z,99.90
2022-09-11T01:55:57.230Z,99.90
2022-09-11T01:58:30.191Z,99.90
2022-09-11T02:01:05.745Z,99.90
2022-09-11T02:03:42.757Z,99.90
2022-09-11T02:06:15.461Z,99.90
2022-09-11T02:08:55.967Z,99.90
2022-09-11T02:11:23.217Z,99.90
2022-09-11T02:14:03.163Z,99.90
2022-09-11T02:16:42.468Z,99.90
2022-09-11T02:19:34.449Z,99.90
2022-09-11T02:22:01.490Z,99.90
2022-09-11T02:24:28.709Z,99.90
2022-09-11T02:27:00.761Z,99.90
2022-09-11T02:29:27.866Z,99.90
2022-09-11T02:31:56.486Z,99.90
2022-09-11T02:34:29.918Z,99.90
2022-09-11T02:37:01.826Z,99.90
2022-09-11T02:39:31.516Z,99.90
2022-09-11T02:42:19.840Z,99.90
2022-09-11T02:45:07.048Z,99.90
2022-09-11T02:47:40.592Z,99.90
2022-09-11T02:50:22.531Z,99.90
2022-09-11T02:53:02.706Z,99.90
2022-09-11T02:55:48.283Z,99.90
2022-09-11T02:58:27.000Z,99.90
2022-09-11T03:00:58.515Z,99.90
2022-09-11T03:03:25.408Z,99.90
2022-09-11T03:05:52.487Z,99.90
2022-09-11T03:08:20.471Z,99.90
2022-09-11T03:10:50.054Z,99.90
2022-09-11T03:13:16.956Z,99.90
2022-09-11T03:15:44.099Z,99.90
2022-09-11T03:18:13.744Z,99.90
2022-09-11T03:20:43.741Z,99.90
2022-09-11T03:23:10.827Z,99.90
2022-09-11T03:25:37.728Z,99.90
2022-09-11T03:28:05.769Z,99.90
2022-09-11T03:30:33.555Z,99.90
2022-09-11T03:33:04.288Z,99.90
2022-09-11T03:35:31.189Z,99.90
2022-09-11T03:37:58.114Z,99.90
2022-09-11T03:40:24.989Z,99.90
2022-09-11T03:42:51.849Z,99.90
2022-09-11T03:45:19.363Z,99.90
2022-09-11T03:47:46.302Z,99.90
2022-09-11T03:50:13.360Z,99.90
2022-09-11T03:52:40.275Z,99.90
2022-09-11T03:55:07.753Z,99.90
2022-09-11T03:57:35.703Z,99.90
2022-09-11T04:00:04.205Z,99.90
2022-09-11T04:02:31.870Z,99.90
2022-09-11T04:04:58.749Z,99.90
2022-09-11T04:07:25.924Z,99.90
2022-09-11T04:09:52.843Z,99.90
2022-09-11T04:12:19.690Z,99.90
2022-09-11T04:14:46.588Z,99.90
2022-09-11T04:17:13.399Z,99.90
2022-09-11T04:19:40.264Z,99.90
2022-09-11T04:22:07.423Z,99.90
2022-09-11T04:24:34.780Z,99.90
2022-09-11T04:27:01.674Z,99.90
2022-09-11T04:29:29.260Z,99.90
2022-09-11T04:31:56.330Z,99.90
2022-09-11T04:34:24.283Z,99.90
2022-09-11T04:36:51.151Z,99.90
2022-09-11T04:39:19.005Z,99.90
2022-09-11T04:41:45.943Z,99.90
2022-09-11T04:44:13.169Z,99.90
2022-09-11T04:46:41.141Z,99.90
2022-09-11T04:49:09.224Z,99.90
2022-09-11T04:51:38.342Z,99.90
2022-09-11T04:54:05.891Z,99.90
2022-09-11T04:56:34.591Z,99.90
2022-09-11T04:59:15.922Z,99.90
2022-09-11T05:01:44.428Z,99.90
2022-09-11T05:04:15.363Z,99.90
2022-09-11T05:06:44.451Z,99.90
2022-09-11T05:09:11.677Z,99.90
2022-09-11T05:11:39.401Z,99.90
2022-09-11T05:14:06.945Z,99.90
2022-09-11T05:16:36.376Z,99.90
2022-09-11T05:19:04.447Z,99.90
2022-09-11T05:21:33.439Z,99.90
2022-09-11T05:24:02.575Z,99.90
2022-09-11T05:26:35.334Z,99.90
2022-09-11T05:29:05.048Z,99.90
2022-09-11T05:31:33.157Z,99.90
2022-09-11T05:34:01.120Z,99.90
2022-09-11T05:36:28.529Z,99.90
2022-09-11T05:38:55.552Z,99.90
2022-09-11T05:41:25.949Z,99.90
2022-09-11T05:43:52.859Z,99.90
2022-09-11T05:46:20.824Z,99.90
2022-09-11T05:48:49.103Z,99.90
2022-09-11T05:51:21.735Z,99.90
2022-09-11T05:53:58.763Z,99.90
2022-09-11T05:56:26.004Z,99.90
2022-09-11T05:58:53.266Z,99.90
2022-09-11T06:01:22.895Z,99.90
2022-09-11T06:03:50.822Z,99.90
2022-09-11T06:06:19.600Z,99.90
2022-09-11T06:08:47.507Z,99.90
2022-09-11T06:11:16.083Z,99.90
2022-09-11T06:13:44.782Z,99.90
2022-09-11T06:16:18.606Z,99.90
2022-09-11T06:18:49.418Z,99.90
2022-09-11T06:21:19.227Z,99.90
2022-09-11T06:23:52.016Z,99.90
2022-09-11T06:26:25.104Z,99.90
2022-09-11T06:28:52.968Z,99.90
2022-09-11T06:31:22.307Z,99.90
2022-09-11T06:33:50.430Z,99.90
2022-09-11T06:36:27.128Z,99.90
2022-09-11T06:38:55.734Z,99.90
2022-09-11T06:41:24.549Z,99.90
2022-09-11T06:43:52.817Z,99.90
2022-09-11T06:46:22.366Z,99.90
2022-09-11T06:48:51.068Z,99.90
2022-09-11T06:51:20.272Z,99.90
2022-09-11T06:53:47.916Z,99.90
2022-09-11T06:56:19.010Z,99.90
2022-09-11T06:58:46.665Z,99.90
2022-09-11T07:01:15.843Z,99.90
2022-09-11T07:03:50.389Z,99.90
2022-09-11T07:06:20.407Z,99.90
2022-09-11T07:08:56.851Z,99.90
2022-09-11T07:11:24.750Z,99.90
2022-09-11T07:13:51.638Z,99.90
2022-09-11T07:16:18.753Z,99.90
2022-09-11T07:18:48.216Z,99.90
2022-09-11T07:21:21.999Z,99.90
2022-09-11T07:23:53.005Z,99.90
2022-09-11T07:26:20.301Z,99.90
2022-09-11T07:28:50.305Z,99.90
2022-09-11T07:31:21.582Z,99.90
2022-09-11T07:33:52.695Z,99.90
2022-09-11T07:36:25.306Z,99.90
2022-09-11T07:38:54.872Z,99.90
2022-09-11T07:41:25.001Z,99.90
2022-09-11T07:43:57.953Z,99.90
2022-09-11T07:46:25.331Z,99.90
2022-09-11T07:48:52.617Z,99.90
2022-09-11T07:51:22.738Z,99.90
2022-09-11T07:53:54.021Z,99.90
2022-09-11T07:56:25.147Z,99.90
2022-09-11T07:58:55.076Z,99.90
2022-09-11T08:01:29.783Z,99.90
2022-09-11T08:04:00.170Z,99.90
2022-09-11T08:06:30.560Z,99.90
2022-09-11T08:09:05.912Z,99.90
2022-09-11T08:11:43.179Z,99.90
2022-09-11T08:14:13.828Z,99.50
2022-09-11T08:16:42.845Z,98.80
2022-09-11T08:19:20.966Z,98.20
2022-09-11T08:21:51.131Z,97.10
2022-09-11T08:24:21.555Z,96.90
2022-09-11T08:26:49.888Z,95.80
2022-09-11T08:29:18.412Z,95.40
2022-09-11T08:31:46.833Z,94.60
2022-09-11T08:34:13.859Z,93.90
2022-09-11T08:36:42.867Z,93.40
2022-09-11T08:39:15.971Z,93.00
2022-09-11T08:41:56.734Z,93.30
2022-09-11T08:44:44.672Z,94.00
2022-09-11T08:47:24.536Z,94.40
2022-09-11T08:50:20.429Z,95.30
2022-09-11T08:52:50.774Z,95.80
2022-09-11T08:55:35.811Z,96.60
2022-09-11T08:58:22.012Z,96.80
2022-09-11T09:01:26.496Z,97.60
2022-09-11T09:04:36.223Z,97.90
2022-09-11T09:07:23.086Z,98.20
2022-09-11T09:09:59.089Z,98.60
2022-09-11T09:12:51.663Z,98.80
2022-09-11T09:15:45.544Z,99.10
2022-09-11T09:18:38.453Z,99.50
2022-09-11T09:21:31.419Z,99.80
2022-09-11T09:24:29.292Z,99.90
2022-09-11T09:26:57.625Z,99.90
2022-09-11T09:29:36.972Z,99.90
2022-09-11T09:32:13.196Z,99.90
2022-09-11T09:34:49.633Z,99.90
2022-09-11T09:37:23.596Z,99.90
2022-09-11T09:39:52.007Z,99.90
2022-09-11T09:42:35.963Z,99.90
2022-09-11T09:45:33.926Z,99.90
2022-09-11T09:48:01.669Z,99.90
2022-09-11T09:50:34.914Z,99.90
2022-09-11T09:53:28.047Z,99.90
2022-09-11T09:56:00.036Z,99.90
2022-09-11T09:58:36.880Z,99.90
2022-09-11T10:01:25.471Z,98.20
2022-09-11T10:04:30.176Z,95.20
2022-09-11T10:07:11.614Z,92.90
2022-09-11T10:09:47.081Z,91.30
2022-09-11T10:12:28.007Z,89.60
2022-09-11T10:15:02.563Z,86.90
2022-09-11T10:17:38.464Z,84.70
2022-09-11T10:20:25.960Z,82.90
2022-09-11T10:22:56.316Z,81.50
2022-09-11T10:25:26.869Z,80.80
2022-09-11T10:28:15.178Z,79.70
2022-09-11T10:31:03.683Z,80.50
2022-09-11T10:33:41.587Z,79.20
2022-09-11T10:36:12.229Z,78.80
2022-09-11T10:38:45.588Z,78.40
2022-09-11T10:41:12.719Z,77.80
2022-09-11T10:43:56.936Z,77.40
2022-09-11T10:46:30.199Z,75.90
2022-09-11T10:49:04.097Z,75.20
2022-09-11T10:51:36.036Z,75.20
2022-09-11T10:54:13.414Z,75.00
2022-09-11T10:56:54.967Z,74.90
2022-09-11T10:59:31.619Z,76.20
2022-09-11T11:02:00.978Z,75.70
2022-09-11T11:04:31.908Z,75.20
2022-09-11T11:07:09.974Z,74.90
2022-09-11T11:10:10.206Z,74.30
2022-09-11T11:13:14.677Z,75.80
2022-09-11T11:15:48.703Z,76.30
2022-09-11T11:18:48.359Z,77.10
2022-09-11T11:21:48.941Z,76.60
2022-09-11T11:24:32.469Z,76.70
2022-09-11T11:27:25.898Z,77.50
2022-09-11T11:30:15.811Z,79.10
2022-09-11T11:32:51.724Z,81.50
2022-09-11T11:35:21.735Z,82.70
2022-09-11T11:38:03.174Z,82.00
2022-09-11T11:40:53.431Z,82.30
2022-09-11T11:43:27.744Z,81.90
2022-09-11T11:46:04.767Z,81.60
2022-09-11T11:48:44.789Z,82.10
2022-09-11T11:51:39.448Z,82.20
2022-09-11T11:54:17.645Z,83.20
2022-09-11T11:56:48.606Z,83.20
2022-09-11T11:59:25.034Z,83.10
2022-09-11T12:02:13.991Z,83.50
2022-09-11T12:04:58.592Z,82.50
2022-09-11T12:07:38.948Z,83.90
2022-09-11T12:10:19.161Z,84.40
2022-09-11T12:12:50.183Z,84.30
2022-09-11T12:15:25.004Z,84.50
2022-09-11T12:18:22.871Z,84.60
2022-09-11T12:20:53.385Z,84.90
2022-09-11T12:23:57.820Z,84.90
2022-09-11T12:26:31.696Z,84.20
2022-09-11T12:29:18.933Z,84.00
2022-09-11T12:31:53.934Z,84.00
2022-09-11T12:34:43.930Z,84.60
2022-09-11T12:37:43.069Z,84.90
2022-09-11T12:40:18.767Z,85.10
2022-09-11T12:42:56.105Z,85.10
2022-09-11T12:45:38.530Z,85.60
2022-09-11T12:48:12.544Z,85.40
2022-09-11T12:50:40.532Z,85.30
2022-09-11T12:53:18.979Z,86.30
2022-09-11T12:56:05.093Z,85.30
2022-09-11T12:58:47.840Z,84.90
2022-09-11T13:01:32.067Z,85.00
2022-09-11T13:04:07.133Z,85.60
2022-09-11T13:06:48.082Z,85.50
2022-09-11T13:09:31.534Z,85.80
2022-09-11T13:12:20.071Z,85.80
2022-09-11T13:14:58.660Z,85.90
2022-09-11T13:17:47.469Z,85.60
2022-09-11T13:20:23.168Z,85.50
2022-09-11T13:22:56.181Z,86.30
2022-09-11T13:25:31.132Z,86.30
2022-09-11T13:28:02.386Z,86.10
2022-09-11T13:30:30.486Z,86.30
2022-09-11T13:33:13.490Z,87.10
2022-09-11T13:35:45.163Z,87.10
2022-09-11T13:38:27.451Z,87.50
2022-09-11T13:40:58.790Z,88.00
2022-09-11T13:43:30.541Z,88.50
2022-09-11T13:46:21.262Z,88.40
2022-09-11T13:48:53.299Z,87.90
2022-09-11T13:51:25.459Z,87.70
2022-09-11T13:54:12.945Z,87.50
2022-09-11T13:57:02.051Z,87.80
2022-09-11T13:59:44.832Z,87.90
2022-09-11T14:02:33.711Z,88.10
2022-09-11T14:05:26.315Z,88.70
2022-09-11T14:08:20.506Z,89.20
2022-09-11T14:10:56.984Z,89.40
2022-09-11T14:13:43.878Z,89.60
2022-09-11T14:16:17.069Z,89.70
2022-09-11T14:19:15.135Z,89.70
2022-09-11T14:21:46.917Z,89.60
2022-09-11T14:24:35.015Z,89.60
2022-09-11T14:27:35.297Z,89.60
2022-09-11T14:30:34.813Z,89.60
2022-09-11T14:33:17.744Z,90.00
2022-09-11T14:35:47.708Z,90.10
2022-09-11T14:38:18.149Z,90.20
2022-09-11T14:40:58.626Z,90.40
2022-09-11T14:43:32.746Z,90.50
2022-09-11T14:46:02.150Z,90.60
2022-09-11T14:48:31.979Z,90.60
2022-09-11T14:51:06.985Z,90.90
2022-09-11T14:53:36.977Z,91.30
2022-09-11T14:56:04.305Z,91.40
2022-09-11T14:58:32.754Z,91.50
2022-09-11T15:01:03.183Z,91.60
2022-09-11T15:03:33.312Z,91.60
2022-09-11T15:06:03.474Z,91.50
2022-09-11T15:08:30.397Z,91.50
2022-09-11T15:10:59.343Z,91.50
2022-09-11T15:13:29.465Z,91.50
2022-09-11T15:16:02.657Z,91.60
2022-09-11T15:18:30.768Z,91.70
2022-09-11T15:20:57.636Z,91.70
2022-09-11T15:23:25.500Z,91.70
2022-09-11T15:26:02.667Z,91.60
2022-09-11T15:28:33.607Z,91.90
2022-09-11T15:31:04.357Z,92.20
2022-09-11T15:33:33.132Z,92.20
2022-09-11T15:36:05.856Z,92.20
2022-09-11T15:38:35.813Z,92.20
2022-09-11T15:41:06.867Z,92.10
2022-09-11T15:43:38.880Z,92.10
2022-09-11T15:46:15.015Z,92.30
2022-09-11T15:48:58.847Z,92.30
2022-09-11T15:51:29.053Z,92.20
2022-09-11T15:54:02.783Z,92.20
2022-09-11T15:56:36.160Z,92.30
2022-09-11T15:59:06.396Z,92.40
2022-09-11T16:01:35.514Z,92.70
2022-09-11T16:04:05.550Z,92.90
2022-09-11T16:06:35.293Z,93.50
2022-09-11T16:09:04.657Z,93.40
2022-09-11T16:11:33.021Z,93.60
2022-09-11T16:14:03.004Z,93.80
2022-09-11T16:16:29.884Z,94.00
2022-09-11T16:18:58.863Z,94.10
2022-09-11T16:21:27.267Z,94.20
2022-09-11T16:24:01.798Z,94.40
2022-09-11T16:26:32.056Z,94.60
2022-09-11T16:29:07.752Z,94.70
2022-09-11T16:31:38.363Z,94.80
2022-09-11T16:34:06.107Z,94.90
2022-09-11T16:36:42.649Z,95.00
2022-09-11T16:39:15.077Z,95.20
2022-09-11T16:41:43.639Z,95.40
2022-09-11T16:44:14.265Z,95.60
2022-09-11T16:46:44.892Z,95.70
2022-09-11T16:49:18.710Z,96.00
2022-09-11T16:51:47.868Z,96.10
2022-09-11T16:54:16.383Z,96.40
2022-09-11T16:56:46.383Z,96.70
2022-09-11T16:59:16.828Z,96.80
2022-09-11T17:01:45.452Z,97.00
2022-09-11T17:04:15.497Z,97.10
2022-09-11T17:06:43.445Z,97.10
2022-09-11T17:09:10.393Z,97.30
2022-09-11T17:11:38.361Z,97.50
2022-09-11T17:14:08.554Z,97.60
2022-09-11T17:16:39.108Z,97.70
2022-09-11T17:19:07.764Z,97.90
2022-09-11T17:21:37.076Z,98.00
2022-09-11T17:24:07.711Z,98.30
2022-09-11T17:26:37.698Z,98.70
2022-09-11T17:29:08.107Z,98.80
2022-09-11T17:31:36.032Z,99.00
2022-09-11T17:34:05.100Z,99.50
2022-09-11T17:36:33.324Z,99.60
2022-09-11T17:39:04.112Z,99.90
2022-09-11T17:41:31.346Z,99.90
2022-09-11T17:44:00.360Z,99.90
2022-09-11T17:46:29.627Z,99.90
2022-09-11T17:49:01.607Z,99.90
2022-09-11T17:51:30.584Z,99.90
2022-09-11T17:53:59.807Z,99.90
2022-09-11T17:56:30.965Z,99.90
2022-09-11T17:59:00.749Z,99.90
2022-09-11T18:01:30.776Z,99.90
2022-09-11T18:03:59.911Z,99.90
2022-09-11T18:06:29.693Z,99.90
2022-09-11T18:09:02.075Z,99.90
2022-09-11T18:11:31.436Z,99.90
2022-09-11T18:14:01.406Z,99.90
2022-09-11T18:16:28.993Z,99.90
2022-09-11T18:18:56.984Z,99.90
2022-09-11T18:21:26.393Z,99.90
2022-09-11T18:23:54.870Z,99.90
2022-09-11T18:26:30.303Z,99.90
2022-09-11T18:29:03.051Z,99.90
2022-09-11T18:31:32.824Z,99.90
2022-09-11T18:34:02.909Z,99.90
2022-09-11T18:36:33.331Z,99.90
2022-09-11T18:39:04.291Z,99.90
2022-09-11T18:41:37.448Z,99.90
2022-09-11T18:44:11.045Z,99.90
2022-09-11T18:46:41.716Z,99.90
2022-09-11T18:49:14.771Z,99.90
2022-09-11T18:51:44.739Z,99.90
2022-09-11T18:54:16.616Z,99.90
2022-09-11T18:56:43.952Z,99.90
2022-09-11T18:59:21.197Z,99.90
2022-09-11T19:01:49.273Z,99.90
2022-09-11T19:04:20.312Z,99.90
2022-09-11T19:06:50.353Z,99.90
2022-09-11T19:09:20.432Z,99.90
2022-09-11T19:11:52.491Z,99.90
2022-09-11T19:14:21.145Z,99.90
2022-09-11T19:16:49.201Z,99.90
2022-09-11T19:19:20.160Z,99.90
2022-09-11T19:21:47.149Z,99.90
2022-09-11T19:24:17.297Z,99.90
2022-09-11T19:26:47.750Z,99.90
2022-09-11T19:29:15.909Z,99.90
2022-09-11T19:31:46.729Z,99.90
2022-09-11T19:34:14.826Z,99.90
2022-09-11T19:36:45.238Z,99.90
2022-09-11T19:39:15.247Z,99.90
2022-09-11T19:41:43.183Z,99.90
2022-09-11T19:44:13.729Z,99.90
2022-09-11T19:46:50.086Z,99.90
2022-09-11T19:49:18.117Z,99.90
2022-09-11T19:51:45.196Z,99.90
2022-09-11T19:54:13.632Z,99.90
2022-09-11T19:56:40.968Z,99.90
2022-09-11T19:59:09.229Z,99.90
2022-09-11T20:01:43.055Z,99.90
2022-09-11T20:04:12.434Z,99.90
2022-09-11T20:06:41.425Z,99.90
2022-09-11T20:09:30.042Z,99.90
2022-09-11T20:11:56.339Z,99.90
2022-09-11T20:14:23.421Z,99.90
2022-09-11T20:16:53.458Z,99.90
2022-09-11T20:19:23.798Z,99.90
2022-09-11T20:21:50.674Z,99.90
2022-09-11T20:24:18.000Z,99.90
2022-09-11T20:26:48.056Z,99.90
2022-09-11T20:29:18.086Z,99.90
2022-09-11T20:31:51.236Z,99.90
2022-09-11T20:34:19.423Z,99.90
2022-09-11T20:36:48.388Z,99.90
2022-09-11T20:39:20.182Z,99.90
2022-09-11T20:41:49.248Z,99.90
2022-09-11T20:44:16.201Z,99.90
2022-09-11T20:46:47.640Z,99.90
2022-09-11T20:49:14.612Z,99.90
2022-09-11T20:51:41.738Z,99.90
2022-09-11T20:54:08.925Z,99.90
2022-09-11T20:56:36.031Z,99.90
2022-09-11T20:59:06.097Z,99.90
2022-09-11T21:01:35.165Z,99.90
2022-09-11T21:04:03.986Z,99.90
2022-09-11T21:06:34.413Z,99.90
2022-09-11T21:09:06.072Z,99.90
2022-09-11T21:11:35.102Z,99.90
2022-09-11T21:14:06.296Z,99.90
2022-09-11T21:16:36.327Z,99.90
2022-09-11T21:19:05.707Z,99.90
2022-09-11T21:21:35.314Z,99.90
2022-09-11T21:24:07.843Z,99.90
2022-09-11T21:26:39.143Z,99.90
2022-09-11T21:29:11.200Z,99.90
2022-09-11T21:31:41.187Z,99.90
2022-09-11T21:34:08.189Z,99.90
2022-09-11T21:36:38.223Z,99.90
2022-09-11T21:39:06.572Z,99.90
2022-09-11T21:41:33.657Z,99.90
2022-09-11T21:44:02.986Z,99.90
2022-09-11T21:46:33.201Z,99.90
2022-09-11T21:49:01.840Z,99.90
2022-09-11T21:51:44.167Z,99.90
2022-09-11T21:54:14.155Z,99.90
2022-09-11T21:56:44.204Z,99.90
2022-09-11T21:59:14.219Z,99.90
2022-09-11T22:01:44.683Z,99.90
2022-09-11T22:04:11.613Z,99.90
2022-09-11T22:06:41.611Z,99.90
2022-09-11T22:09:10.824Z,99.90
2022-09-11T22:11:40.791Z,99.90
2022-09-11T22:14:10.921Z,99.90
2022-09-11T22:16:38.845Z,99.90
2022-09-11T22:19:09.363Z,99.90
2022-09-11T22:21:39.942Z,99.90
2022-09-11T22:24:08.886Z,99.90
2022-09-11T22:26:38.817Z,99.90
2022-09-11T22:29:08.554Z,99.90
2022-09-11T22:31:39.200Z,99.90
2022-09-11T22:34:09.703Z,99.90
2022-09-11T22:36:39.773Z,99.90
2022-09-11T22:39:10.012Z,99.90
2022-09-11T22:41:40.063Z,99.90
2022-09-11T22:44:11.258Z,99.90
2022-09-11T22:46:41.957Z,99.90
2022-09-11T22:49:10.704Z,99.90
2022-09-11T22:51:40.716Z,99.90
2022-09-11T22:54:13.476Z,99.90
2022-09-11T22:56:43.711Z,99.90
2022-09-11T22:59:11.721Z,99.90
2022-09-11T23:01:41.950Z,99.90
2022-09-11T23:04:10.856Z,99.90
2022-09-11T23:06:59.409Z,99.90
2022-09-11T23:09:29.452Z,99.90
2022-09-11T23:11:56.360Z,99.90
2022-09-11T23:14:26.423Z,99.90
2022-09-11T23:16:56.401Z,99.90
2022-09-11T23:19:24.261Z,99.90
2022-09-11T23:21:54.977Z,99.90
2022-09-11T23:24:22.898Z,99.90
2022-09-11T23:26:50.883Z,99.90
2022-09-11T23:29:21.091Z,99.90
2022-09-11T23:31:50.002Z,99.90
2022-09-11T23:34:19.980Z,99.90
2022-09-11T23:36:48.991Z,99.90
2022-09-11T23:39:21.875Z,99.90
2022-09-11T23:41:50.899Z,99.90
2022-09-11T23:44:18.888Z,99.90
2022-09-11T23:46:47.888Z,99.90
2022-09-11T23:49:16.095Z,99.90
2022-09-11T23:51:49.114Z,99.90
2022-09-11T23:54:19.284Z,99.90
2022-09-11T23:56:46.233Z,99.90
2022-09-11T23:59:14.240Z,99.90
